Time,TemperatureF,DewpointF,PressureIn,WindDirection,WindDirectionDegrees,WindSpeedMPH,WindSpeedGustMPH,Humidity,HourlyPrecipIn,Conditions,Clouds,dailyrainin,SoftwareType,DateUTC
2013-04-21 00:09:00,28.1,17.0,30.25,SW,236,3.0,8.0,63,0.00,,,0.00,weatherlink.com 1.10,2013-04-21 04:09:00,
2013-04-21 00:25:00,28.0,16.0,30.25,NW,305,3.0,14.0,62,0.00,,,0.00,weatherlink.com 1.10,2013-04-21 04:25:00,
2013-04-21 00:40:00,27.7,16.0,30.25,West,274,3.0,12.0,63,0.00,,,0.00,weatherlink.com 1.10,2013-04-21 04:40:00,
2013-04-21 00:55:00,27.8,17.0,30.27,West,268,2.0,10.0,63,0.00,,,0.00,weatherlink.com 1.10,2013-04-21 04:55:00,
2013-04-21 01:10:00,27.6,16.0,30.27,West,262,0.0,7.0,63,0.00,,,0.00,weatherlink.com 1.10,2013-04-21 05:10:00,
2013-04-21 01:25:00,27.5,16.0,30.28,WSW,250,5.0,8.0,62,0.00,,,0.00,weatherlink.com 1.10,2013-04-21 05:25:00,
2013-04-21 01:40:00,27.4,16.0,30.28,WSW,256,0.0,9.0,63,0.00,,,0.00,weatherlink.com 1.10,2013-04-21 05:40:00,
2013-04-21 01:55:00,27.3,16.0,30.29,NW,318,5.0,12.0,63,0.00,,,0.00,weatherlink.com 1.10,2013-04-21 05:55:00,
2013-04-21 02:10:00,27.1,17.0,30.30,West,277,2.0,13.0,65,0.00,,,0.00,weatherlink.com 1.10,2013-04-21 06:10:00,
2013-04-21 02:25:00,26.9,17.0,30.30,NW,308,5.0,12.0,67,0.00,,,0.00,weatherlink.com 1.10,2013-04-21 06:25:00,
2013-04-21 02:40:00,26.7,17.0,30.32,WNW,302,8.0,10.0,68,0.00,,,0.00,weatherlink.com 1.10,2013-04-21 06:40:00,
2013-04-21 02:55:00,26.6,18.0,30.32,South,190,2.0,11.0,70,0.00,,,0.00,weatherlink.com 1.10,2013-04-21 06:55:00,
2013-04-21 03:10:00,26.2,19.0,30.33,North,349,5.0,13.0,73,0.00,,,0.00,weatherlink.com 1.10,2013-04-21 07:10:00,
2013-04-21 03:25:00,25.1,18.0,30.34,WNW,285,8.0,16.0,74,0.00,,,0.00,weatherlink.com 1.10,2013-04-21 07:25:00,
2013-04-21 03:40:00,24.7,17.0,30.35,NNW,338,3.0,14.0,71,0.00,,,0.00,weatherlink.com 1.10,2013-04-21 07:40:00,
2013-04-21 03:55:00,24.5,16.0,30.36,North,1,5.0,12.0,70,0.00,,,0.00,weatherlink.com 1.10,2013-04-21 07:55:00,
2013-04-21 04:10:00,24.2,16.0,30.37,NNW,335,5.0,10.0,71,0.00,,,0.00,weatherlink.com 1.10,2013-04-21 08:10:00,
2013-04-21 04:25:00,24.0,15.0,30.37,WSW,247,2.0,12.0,68,0.00,,,0.00,weatherlink.com 1.10,2013-04-21 08:25:00,
2013-04-21 04:40:00,23.9,15.0,30.38,West,264,3.0,16.0,69,0.00,,,0.00,weatherlink.com 1.10,2013-04-21 08:40:00,
2013-04-21 04:55:00,23.8,16.0,30.39,West,267,3.0,7.0,71,0.00,,,0.00,weatherlink.com 1.10,2013-04-21 08:55:00,
2013-04-21 05:10:00,23.5,15.0,30.40,WNW,298,6.0,8.0,71,0.00,,,0.00,weatherlink.com 1.10,2013-04-21 09:10:00,
2013-04-21 05:25:00,23.5,16.0,30.41,WSW,257,2.0,6.0,72,0.00,,,0.00,weatherlink.com 1.10,2013-04-21 09:25:00,
2013-04-21 05:40:00,23.6,16.0,30.42,NW,314,2.0,9.0,72,0.00,,,0.00,weatherlink.com 1.10,2013-04-21 09:40:00,
2013-04-21 05:55:00,23.5,16.0,30.43,WNW,288,7.0,8.0,72,0.00,,,0.00,weatherlink.com 1.10,2013-04-21 09:55:00,
2013-04-21 06:11:00,23.5,16.0,30.44,NNW,347,6.0,12.0,73,0.00,,,0.00,weatherlink.com 1.10,2013-04-21 10:11:00,
2013-04-21 06:26:00,23.4,16.0,30.45,NW,309,2.0,6.0,72,0.00,,,0.00,weatherlink.com 1.10,2013-04-21 10:26:00,
2013-04-21 06:41:00,23.2,15.0,30.47,NW,313,6.0,11.0,70,0.00,,,0.00,weatherlink.com 1.10,2013-04-21 10:41:00,
2013-04-21 06:56:00,23.3,15.0,30.48,WNW,293,6.0,9.0,71,0.00,,,0.00,weatherlink.com 1.10,2013-04-21 10:56:00,
2013-04-21 07:11:00,23.6,15.0,30.49,WNW,292,4.0,12.0,69,0.00,,,0.00,weatherlink.com 1.10,2013-04-21 11:11:00,
2013-04-21 07:26:00,23.7,15.0,30.50,WNW,290,7.0,10.0,68,0.00,,,0.00,weatherlink.com 1.10,2013-04-21 11:26:00,
2013-04-21 07:41:00,23.6,15.0,30.51,West,265,3.0,9.0,70,0.00,,,0.00,weatherlink.com 1.10,2013-04-21 11:41:00,
2013-04-21 07:56:00,23.8,15.0,30.52,NW,306,3.0,9.0,68,0.00,,,0.00,weatherlink.com 1.10,2013-04-21 11:56:00,
2013-04-21 08:11:00,24.3,15.0,30.53,ENE,69,5.0,5.0,69,0.00,,,0.00,weatherlink.com 1.10,2013-04-21 12:11:00,
2013-04-21 08:26:00,25.1,16.0,30.53,NW,305,8.0,10.0,67,0.00,,,0.00,weatherlink.com 1.10,2013-04-21 12:26:00,
2013-04-21 08:41:00,25.1,14.0,30.55,WNW,299,3.0,13.0,64,0.00,,,0.00,weatherlink.com 1.10,2013-04-21 12:41:00,
2013-04-21 08:56:00,25.9,16.0,30.55,NNE,21,2.0,10.0,65,0.00,,,0.00,weatherlink.com 1.10,2013-04-21 12:56:00,
2013-04-21 09:11:00,25.5,14.0,30.56,WNW,285,5.0,13.0,61,0.00,,,0.00,weatherlink.com 1.10,2013-04-21 13:11:00,
2013-04-21 09:26:00,25.5,15.0,30.57,West,266,9.0,12.0,64,0.00,,,0.00,weatherlink.com 1.10,2013-04-21 13:26:00,
2013-04-21 09:41:00,25.9,14.0,30.58,West,269,4.0,13.0,62,0.00,,,0.00,weatherlink.com 1.10,2013-04-21 13:41:00,
2013-04-21 09:56:00,26.9,16.0,30.58,WSW,253,5.0,10.0,63,0.00,,,0.00,weatherlink.com 1.10,2013-04-21 13:56:00,
2013-04-21 10:11:00,27.1,14.0,30.59,WSW,250,5.0,11.0,58,0.00,,,0.00,weatherlink.com 1.10,2013-04-21 14:11:00,
2013-04-21 10:26:00,27.8,15.0,30.59,West,259,5.0,13.0,58,0.00,,,0.00,weatherlink.com 1.10,2013-04-21 14:26:00,
2013-04-21 10:41:00,28.5,16.0,30.59,West,281,3.0,11.0,59,0.00,,,0.00,weatherlink.com 1.10,2013-04-21 14:41:00,
2013-04-21 10:56:00,29.5,15.0,30.60,WNW,283,8.0,8.0,56,0.00,,,0.00,weatherlink.com 1.10,2013-04-21 14:56:00,
2013-04-21 11:11:00,29.6,16.0,30.60,West,264,5.0,10.0,56,0.00,,,0.00,weatherlink.com 1.10,2013-04-21 15:11:00,
2013-04-21 11:26:00,30.1,16.0,30.60,NW,314,0.0,11.0,55,0.00,,,0.00,weatherlink.com 1.10,2013-04-21 15:26:00,
2013-04-21 11:41:00,31.1,15.0,30.60,WNW,303,6.0,10.0,52,0.00,,,0.00,weatherlink.com 1.10,2013-04-21 15:41:00,
2013-04-21 11:56:00,31.0,14.0,30.61,West,276,3.0,9.0,50,0.00,,,0.00,weatherlink.com 1.10,2013-04-21 15:56:00,
2013-04-21 12:11:00,31.2,14.0,30.61,WNW,296,8.0,12.0,50,0.00,,,0.00,weatherlink.com 1.10,2013-04-21 16:11:00,
2013-04-21 12:26:00,32.7,16.0,30.61,WNW,300,1.0,13.0,50,0.00,,,0.00,weatherlink.com 1.10,2013-04-21 16:26:00,
2013-04-21 12:42:00,33.2,15.0,30.61,West,278,3.0,12.0,48,0.00,,,0.00,weatherlink.com 1.10,2013-04-21 16:42:00,
2013-04-21 12:57:00,33.8,16.0,30.61,NW,314,2.0,13.0,48,0.00,,,0.00,weatherlink.com 1.10,2013-04-21 16:57:00,
2013-04-21 13:12:00,34.6,15.0,30.61,WNW,290,8.0,12.0,45,0.00,,,0.00,weatherlink.com 1.10,2013-04-21 17:12:00,
2013-04-21 13:27:00,35.2,15.0,30.61,West,266,4.0,10.0,44,0.00,,,0.00,weatherlink.com 1.10,2013-04-21 17:27:00,
2013-04-21 13:42:00,34.7,16.0,30.62,NNW,330,3.0,11.0,46,0.00,,,0.00,weatherlink.com 1.10,2013-04-21 17:42:00,
2013-04-21 13:57:00,35.9,13.0,30.62,West,272,4.0,11.0,39,0.00,,,0.00,weatherlink.com 1.10,2013-04-21 17:57:00,
2013-04-21 14:12:00,36.7,16.0,30.62,WNW,295,5.0,7.0,43,0.00,,,0.00,weatherlink.com 1.10,2013-04-21 18:12:00,
2013-04-21 14:27:00,35.5,13.0,30.62,NW,305,6.0,12.0,40,0.00,,,0.00,weatherlink.com 1.10,2013-04-21 18:27:00,
2013-04-21 14:42:00,36.0,14.0,30.62,West,270,2.0,7.0,40,0.00,,,0.00,weatherlink.com 1.10,2013-04-21 18:42:00,
2013-04-21 14:57:00,37.8,12.0,30.62,NW,313,2.0,8.0,35,0.00,,,0.00,weatherlink.com 1.10,2013-04-21 18:57:00,
2013-04-21 15:12:00,37.5,13.0,30.62,ENE,68,3.0,11.0,36,0.00,,,0.00,weatherlink.com 1.10,2013-04-21 19:12:00,
2013-04-21 15:27:00,37.7,9.0,30.62,West,274,3.0,12.0,31,0.00,,,0.00,weatherlink.com 1.10,2013-04-21 19:27:00,
2013-04-21 15:42:00,38.1,11.0,30.62,West,266,3.0,13.0,32,0.00,,,0.00,weatherlink.com 1.10,2013-04-21 19:42:00,
2013-04-21 15:57:00,38.6,11.0,30.62,NW,304,4.0,13.0,32,0.00,,,0.00,weatherlink.com 1.10,2013-04-21 19:57:00,
2013-04-21 16:12:00,38.8,10.0,30.62,West,271,4.0,8.0,30,0.00,,,0.00,weatherlink.com 1.10,2013-04-21 20:12:00,
2013-04-21 16:27:00,39.3,9.0,30.61,West,274,4.0,10.0,28,0.00,,,0.00,weatherlink.com 1.10,2013-04-21 20:27:00,
2013-04-21 16:42:00,39.3,9.0,30.61,ENE,76,4.0,10.0,28,0.00,,,0.00,weatherlink.com 1.10,2013-04-21 20:42:00,
2013-04-21 16:57:00,39.1,9.0,30.62,NW,314,2.0,9.0,29,0.00,,,0.00,weatherlink.com 1.10,2013-04-21 20:57:00,
2013-04-21 17:12:00,39.5,10.0,30.62,West,273,2.0,9.0,29,0.00,,,0.00,weatherlink.com 1.10,2013-04-21 21:12:00,
2013-04-21 17:27:00,39.5,7.0,30.62,NW,319,3.0,8.0,26,0.00,,,0.00,weatherlink.com 1.10,2013-04-21 21:27:00,
2013-04-21 17:43:00,39.9,11.0,30.62,NW,318,1.0,7.0,31,0.00,,,0.00,weatherlink.com 1.10,2013-04-21 21:43:00,
2013-04-21 17:58:00,40.0,11.0,30.63,NE,52,0.0,4.0,30,0.00,,,0.00,weatherlink.com 1.10,2013-04-21 21:58:00,
2013-04-21 18:13:00,39.3,12.0,30.63,NNE,13,1.0,4.0,32,0.00,,,0.00,weatherlink.com 1.10,2013-04-21 22:13:00,
2013-04-21 18:28:00,38.7,9.0,30.63,NW,304,4.0,5.0,29,0.00,,,0.00,weatherlink.com 1.10,2013-04-21 22:28:00,
2013-04-21 18:42:00,37.9,10.0,30.63,ENE,63,0.0,5.0,31,0.00,,,0.00,weatherlink.com 1.10,2013-04-21 22:42:00,
2013-04-21 18:57:00,38.1,11.0,30.63,ENE,77,0.0,3.0,32,0.00,,,0.00,weatherlink.com 1.10,2013-04-21 22:57:00,
2013-04-21 19:12:00,37.6,11.0,30.64,NNW,333,1.0,2.0,33,0.00,,,0.00,weatherlink.com 1.10,2013-04-21 23:12:00,
2013-04-21 19:27:00,36.7,10.0,30.65,WNW,288,0.0,1.0,33,0.00,,,0.00,weatherlink.com 1.10,2013-04-21 23:27:00,
2013-04-21 19:42:00,34.9,11.0,30.65,ESE,107,0.0,1.0,38,0.00,,,0.00,weatherlink.com 1.10,2013-04-21 23:42:00,
2013-04-21 19:57:00,33.2,11.0,30.66,East,98,1.0,1.0,40,0.00,,,0.00,weatherlink.com 1.10,2013-04-21 23:57:00,
2013-04-21 20:12:00,32.3,9.0,30.66,East,97,1.0,1.0,38,0.00,,,0.00,weatherlink.com 1.10,2013-04-22 00:12:00,
2013-04-21 20:27:00,31.9,11.0,30.67,East,85,0.0,1.0,41,0.00,,,0.00,weatherlink.com 1.10,2013-04-22 00:27:00,
2013-04-21 20:42:00,31.4,11.0,30.67,East,84,0.0,1.0,42,0.00,,,0.00,weatherlink.com 1.10,2013-04-22 00:42:00,
2013-04-21 20:57:00,31.2,13.0,30.68,East,84,1.0,1.0,48,0.00,,,0.00,weatherlink.com 1.10,2013-04-22 00:57:00,
2013-04-21 21:12:00,30.9,12.0,30.68,East,83,1.0,1.0,46,0.00,,,0.00,weatherlink.com 1.10,2013-04-22 01:12:00,
2013-04-21 21:27:00,30.4,12.0,30.68,East,88,1.0,2.0,47,0.00,,,0.00,weatherlink.com 1.10,2013-04-22 01:27:00,
2013-04-21 21:42:00,30.2,12.0,30.68,East,82,1.0,2.0,46,0.00,,,0.00,weatherlink.com 1.10,2013-04-22 01:42:00,
2013-04-21 21:57:00,30.3,13.0,30.68,East,94,1.0,2.0,48,0.00,,,0.00,weatherlink.com 1.10,2013-04-22 01:57:00,
2013-04-21 22:12:00,30.7,13.0,30.69,East,96,1.0,2.0,47,0.00,,,0.00,weatherlink.com 1.10,2013-04-22 02:12:00,
2013-04-21 22:27:00,30.4,12.0,30.69,East,86,1.0,2.0,47,0.00,,,0.00,weatherlink.com 1.10,2013-04-22 02:27:00,
2013-04-21 22:42:00,30.3,11.0,30.69,East,79,1.0,2.0,45,0.00,,,0.00,weatherlink.com 1.10,2013-04-22 02:42:00,
2013-04-21 22:57:00,30.6,11.0,30.69,East,94,1.0,1.0,45,0.00,,,0.00,weatherlink.com 1.10,2013-04-22 02:57:00,
2013-04-21 23:12:00,29.9,14.0,30.69,East,87,1.0,1.0,52,0.00,,,0.00,weatherlink.com 1.10,2013-04-22 03:12:00,
2013-04-21 23:27:00,30.2,13.0,30.69,East,80,1.0,1.0,50,0.00,,,0.00,weatherlink.com 1.10,2013-04-22 03:27:00,
2013-04-21 23:42:00,29.5,15.0,30.70,East,80,2.0,3.0,55,0.00,,,0.00,weatherlink.com 1.10,2013-04-22 03:42:00,
2013-04-21 23:57:00,29.6,16.0,30.69,East,79,1.0,2.0,56,0.00,,,0.00,weatherlink.com 1.10,2013-04-22 03:57:00,